createdAt,value
2023-05-03T00:00:05.542Z,2340.00
2023-05-03T00:01:05.323Z,2332.00
2023-05-03T00:02:05.375Z,2340.00
2023-05-03T00:03:05.412Z,2339.00
2023-05-03T00:04:05.377Z,2329.00
2023-05-03T00:05:06.128Z,2336.00
2023-05-03T00:06:05.433Z,2327.00
2023-05-03T00:07:05.420Z,2319.00
2023-05-03T00:08:05.435Z,2314.00
2023-05-03T00:09:05.455Z,2311.00
2023-05-03T00:10:05.711Z,2311.00
2023-05-03T00:11:05.478Z,2314.00
2023-05-03T00:12:05.483Z,2304.00
2023-05-03T00:13:05.514Z,2312.00
2023-05-03T00:14:05.525Z,2303.00
2023-05-03T00:15:05.551Z,2322.00
2023-05-03T00:16:05.560Z,2315.00
2023-05-03T00:17:05.680Z,2300.00
2023-05-03T00:18:05.652Z,2301.00
2023-05-03T00:19:05.628Z,2321.00
2023-05-03T00:20:05.737Z,2298.00
2023-05-03T00:21:05.642Z,2300.00
2023-05-03T00:22:05.659Z,2296.00
2023-05-03T00:23:05.674Z,2317.00
2023-05-03T00:24:05.685Z,2299.00
2023-05-03T00:25:05.711Z,2293.00
2023-05-03T00:26:05.721Z,2304.00
2023-05-03T00:27:05.735Z,2287.00
2023-05-03T00:28:05.745Z,2287.00
2023-05-03T00:29:05.763Z,2283.00
2023-05-03T00:30:05.956Z,2279.00
2023-05-03T00:31:05.900Z,2295.00
2023-05-03T00:32:05.813Z,2293.00
2023-05-03T00:33:05.859Z,2281.00
2023-05-03T00:34:05.828Z,2289.00
2023-05-03T00:35:05.847Z,2287.00
2023-05-03T00:36:05.866Z,2287.00
2023-05-03T00:37:05.903Z,2279.00
2023-05-03T00:38:05.938Z,2284.00
2023-05-03T00:39:05.945Z,2275.00
2023-05-03T00:40:06.164Z,2272.00
2023-05-03T00:41:06.011Z,2257.00
2023-05-03T00:42:06.033Z,2277.00
2023-05-03T00:43:06.058Z,2272.00
2023-05-03T00:44:06.094Z,2276.00
2023-05-03T00:45:06.185Z,2274.00
2023-05-03T00:46:16.028Z,2273.00
2023-05-03T00:47:07.215Z,2274.00
2023-05-03T00:48:06.228Z,2274.00
2023-05-03T00:49:06.209Z,2267.00
2023-05-03T00:50:06.481Z,2274.00
2023-05-03T00:51:06.262Z,2271.00
2023-05-03T00:52:06.261Z,2273.00
2023-05-03T00:53:06.275Z,2267.00
2023-05-03T00:54:06.298Z,2264.00
2023-05-03T00:55:06.306Z,2265.00
2023-05-03T00:56:06.369Z,2248.00
2023-05-03T00:57:06.343Z,2255.00
2023-05-03T00:58:06.373Z,2267.00
2023-05-03T00:59:06.441Z,2248.00
2023-05-03T01:00:06.439Z,2238.00
2023-05-03T01:01:06.440Z,2259.00
2023-05-03T01:02:06.568Z,2260.00
2023-05-03T01:03:06.518Z,2256.00
2023-05-03T01:04:06.606Z,2264.00
2023-05-03T01:05:06.523Z,2266.00
2023-05-03T01:06:06.566Z,2250.00
2023-05-03T01:07:06.551Z,2242.00
2023-05-03T01:08:06.570Z,2249.00
2023-05-03T01:09:06.602Z,2234.00
2023-05-03T01:10:06.611Z,2236.00
2023-05-03T01:11:06.636Z,2237.00
2023-05-03T01:12:06.644Z,2238.00
2023-05-03T01:13:06.689Z,2237.00
2023-05-03T01:14:06.693Z,2258.00
2023-05-03T01:15:06.716Z,2237.00
2023-05-03T01:16:06.783Z,2224.00
2023-05-03T01:17:06.746Z,2247.00
2023-05-03T01:18:06.771Z,2249.00
2023-05-03T01:19:06.781Z,2250.00
2023-05-03T01:20:06.785Z,2250.00
2023-05-03T01:21:06.814Z,2244.00
2023-05-03T01:22:06.817Z,2244.00
2023-05-03T01:23:06.834Z,2233.00
2023-05-03T01:24:06.867Z,2240.00
2023-05-03T01:25:06.895Z,2250.00
2023-05-03T01:26:06.902Z,2242.00
2023-05-03T01:27:06.933Z,2235.00
2023-05-03T01:28:06.936Z,2234.00
2023-05-03T01:29:06.976Z,2229.00
2023-05-03T01:30:06.975Z,2218.00
2023-05-03T01:31:07.051Z,2239.00
2023-05-03T01:32:07.094Z,2224.00
2023-05-03T01:33:07.095Z,2220.00
2023-05-03T01:34:07.060Z,2219.00
2023-05-03T01:35:07.079Z,2210.00
2023-05-03T01:36:07.095Z,2216.00
2023-05-03T01:37:07.106Z,2207.00
2023-05-03T01:38:07.118Z,2231.00
2023-05-03T01:39:07.130Z,2226.00
2023-05-03T01:40:07.211Z,2208.00
2023-05-03T01:41:07.197Z,2210.00
2023-05-03T01:42:07.178Z,2200.00
2023-05-03T01:43:07.193Z,2201.00
2023-05-03T01:44:07.236Z,2201.00
2023-05-03T01:45:07.251Z,2201.00
2023-05-03T01:46:07.417Z,2203.00
2023-05-03T01:47:07.271Z,2208.00
2023-05-03T01:48:07.348Z,2209.00
2023-05-03T01:49:07.309Z,2205.00
2023-05-03T01:50:07.313Z,2194.00
2023-05-03T01:51:07.326Z,2209.00
2023-05-03T01:52:07.353Z,2209.00
2023-05-03T01:53:07.375Z,2188.00
2023-05-03T01:54:07.407Z,2197.00
2023-05-03T01:55:07.426Z,2201.00
2023-05-03T01:56:07.418Z,2188.00
2023-05-03T01:57:07.450Z,2186.00
2023-05-03T01:58:07.475Z,2185.00
2023-05-03T01:59:07.471Z,2186.00
2023-05-03T02:00:07.473Z,2179.00
2023-05-03T02:01:07.537Z,2180.00
2023-05-03T02:02:07.510Z,2184.00
2023-05-03T02:03:07.535Z,2186.00
2023-05-03T02:04:07.551Z,2184.00
2023-05-03T02:05:07.558Z,2185.00
2023-05-03T02:06:07.598Z,2185.00
2023-05-03T02:07:07.576Z,2185.00
2023-05-03T02:08:07.640Z,2185.00
2023-05-03T02:09:07.617Z,2181.00
2023-05-03T02:10:07.638Z,2196.00
2023-05-03T02:11:07.662Z,2181.00
2023-05-03T02:12:07.674Z,2172.00
2023-05-03T02:13:07.695Z,2169.00
2023-05-03T02:14:07.717Z,2162.00
2023-05-03T02:15:07.726Z,2175.00
2023-05-03T02:16:07.746Z,2166.00
2023-05-03T02:17:08.023Z,2167.00
2023-05-03T02:18:07.857Z,2154.00
2023-05-03T02:19:07.796Z,2162.00
2023-05-03T02:20:07.842Z,2144.00
2023-05-03T02:21:07.847Z,2154.00
2023-05-03T02:22:07.847Z,2155.00
2023-05-03T02:23:07.875Z,2143.00
2023-05-03T02:24:07.891Z,2156.00
2023-05-03T02:25:07.912Z,2153.00
2023-05-03T02:26:07.943Z,2150.00
2023-05-03T02:27:07.956Z,2148.00
2023-05-03T02:28:07.989Z,2145.00
2023-05-03T02:29:07.987Z,2137.00
2023-05-03T02:30:08.037Z,2145.00
2023-05-03T02:31:08.049Z,2125.00
2023-05-03T02:32:08.032Z,2147.00
2023-05-03T02:33:08.093Z,2146.00
2023-05-03T02:34:08.044Z,2137.00
2023-05-03T02:35:08.055Z,2139.00
2023-05-03T02:36:08.075Z,2136.00
2023-05-03T02:37:08.071Z,2137.00
2023-05-03T02:38:08.091Z,2131.00
2023-05-03T02:39:08.092Z,2138.00
2023-05-03T02:40:08.106Z,2127.00
2023-05-03T02:41:08.131Z,2133.00
2023-05-03T02:42:08.141Z,2116.00
2023-05-03T02:43:08.145Z,2127.00
2023-05-03T02:44:08.167Z,2135.00
2023-05-03T02:45:08.182Z,2109.00
2023-05-03T02:46:08.246Z,2119.00
2023-05-03T02:47:08.219Z,2127.00
2023-05-03T02:48:08.277Z,2118.00
2023-05-03T02:49:08.232Z,2116.00
2023-05-03T02:50:08.251Z,2117.00
2023-05-03T02:51:08.283Z,2134.00
2023-05-03T02:52:08.286Z,2101.00
2023-05-03T02:53:08.301Z,2113.00
2023-05-03T02:54:08.322Z,2101.00
2023-05-03T02:55:08.359Z,2111.00
2023-05-03T02:56:08.410Z,2111.00
2023-05-03T02:57:08.426Z,2095.00
2023-05-03T02:58:08.465Z,2119.00
2023-05-03T02:59:08.499Z,2053.00
2023-05-03T03:00:08.540Z,1846.00
2023-05-03T03:01:08.599Z,1741.00
2023-05-03T03:02:08.675Z,1646.00
2023-05-03T03:03:08.691Z,1546.00
2023-05-03T03:04:08.856Z,1453.00
2023-05-03T03:05:08.763Z,1347.00
2023-05-03T03:06:08.830Z,1235.00
2023-05-03T03:07:08.887Z,1116.00
2023-05-03T03:08:08.907Z,1001.00
2023-05-03T03:09:08.958Z,899.00
2023-05-03T03:10:09.034Z,808.00
2023-05-03T03:11:09.097Z,706.00
2023-05-03T03:12:09.172Z,654.00
2023-05-03T03:13:09.235Z,618.00
2023-05-03T03:14:09.334Z,579.00
2023-05-03T03:15:09.464Z,559.00
2023-05-03T03:16:09.553Z,528.00
2023-05-03T03:17:09.577Z,499.00
2023-05-03T03:18:09.763Z,500.00
2023-05-03T03:19:09.774Z,500.00
2023-05-03T03:20:09.853Z,500.00
2023-05-03T03:21:09.950Z,500.00
2023-05-03T03:22:10.038Z,501.00
2023-05-03T03:23:10.139Z,499.00
2023-05-03T03:24:10.235Z,505.00
2023-05-03T03:25:10.361Z,501.00
2023-05-03T03:26:10.435Z,500.00
2023-05-03T03:27:10.524Z,503.00
2023-05-03T03:28:10.595Z,500.00
2023-05-03T03:29:10.633Z,501.00
2023-05-03T03:30:10.684Z,500.00
2023-05-03T03:31:10.770Z,500.00
2023-05-03T03:32:10.850Z,500.00
2023-05-03T03:33:10.916Z,500.00
2023-05-03T03:34:11.005Z,500.00
2023-05-03T03:35:11.108Z,500.00
2023-05-03T03:36:11.169Z,502.00
2023-05-03T03:37:11.266Z,500.00
2023-05-03T03:38:11.360Z,502.00
2023-05-03T03:39:11.406Z,503.00
2023-05-03T03:40:11.468Z,502.00
2023-05-03T03:41:11.554Z,500.00
2023-05-03T03:42:11.622Z,500.00
2023-05-03T03:43:11.689Z,500.00
2023-05-03T03:44:11.751Z,502.00
2023-05-03T03:45:11.804Z,500.00
2023-05-03T03:46:11.844Z,500.00
2023-05-03T03:47:11.955Z,500.00
2023-05-03T03:48:12.026Z,500.00
2023-05-03T03:49:11.972Z,500.00
2023-05-03T03:50:12.019Z,505.00
2023-05-03T03:51:12.084Z,501.00
2023-05-03T03:52:12.118Z,500.00
2023-05-03T03:53:12.167Z,506.00
2023-05-03T03:54:12.215Z,505.00
2023-05-03T03:55:12.267Z,500.00
2023-05-03T03:56:12.300Z,503.00
2023-05-03T03:57:12.366Z,500.00
2023-05-03T03:58:12.388Z,502.00
2023-05-03T03:59:12.442Z,502.00
2023-05-03T04:00:12.483Z,504.00
2023-05-03T04:01:12.530Z,502.00
2023-05-03T04:02:12.590Z,503.00
2023-05-03T04:03:12.684Z,502.00
2023-05-03T04:04:12.840Z,506.00
2023-05-03T04:05:12.717Z,503.00
2023-05-03T04:06:12.792Z,501.00
2023-05-03T04:07:12.796Z,506.00
2023-05-03T04:08:12.847Z,503.00
2023-05-03T04:09:12.919Z,504.00
2023-05-03T04:10:12.943Z,504.00
2023-05-03T04:11:13.038Z,500.00
2023-05-03T04:12:13.041Z,500.00
2023-05-03T04:13:13.085Z,506.00
2023-05-03T04:14:13.141Z,504.00
2023-05-03T04:15:13.202Z,501.00
2023-05-03T04:16:13.249Z,501.00
2023-05-03T04:17:13.317Z,517.00
2023-05-03T04:18:13.377Z,525.00
2023-05-03T04:19:13.388Z,532.00
2023-05-03T04:20:13.444Z,537.00
2023-05-03T04:21:13.497Z,550.00
2023-05-03T04:22:13.543Z,551.00
2023-05-03T04:23:13.585Z,558.00
2023-05-03T04:24:13.642Z,565.00
2023-05-03T04:25:13.703Z,562.00
2023-05-03T04:26:23.905Z,563.00
2023-05-03T04:27:14.818Z,563.00
2023-05-03T04:28:13.842Z,564.00
2023-05-03T04:29:13.887Z,559.00
2023-05-03T04:30:13.916Z,561.00
2023-05-03T04:31:14.002Z,559.00
2023-05-03T04:32:14.014Z,562.00
2023-05-03T04:33:14.134Z,560.00
2023-05-03T04:34:14.100Z,553.00
2023-05-03T04:35:14.137Z,550.00
2023-05-03T04:36:14.181Z,547.00
2023-05-03T04:37:14.222Z,545.00
2023-05-03T04:38:14.260Z,547.00
2023-05-03T04:39:14.303Z,544.00
2023-05-03T04:40:14.346Z,537.00
2023-05-03T04:41:16.144Z,543.00
2023-05-03T04:42:14.431Z,536.00
2023-05-03T04:43:14.462Z,529.00
2023-05-03T04:44:14.518Z,535.00
2023-05-03T04:45:14.584Z,526.00
2023-05-03T04:46:14.629Z,529.00
2023-05-03T04:47:14.633Z,526.00
2023-05-03T04:48:14.724Z,526.00
2023-05-03T04:49:14.702Z,526.00
2023-05-03T04:50:14.747Z,526.00
2023-05-03T04:51:14.798Z,522.00
2023-05-03T04:52:14.842Z,519.00
2023-05-03T04:53:14.872Z,514.00
2023-05-03T04:54:14.920Z,516.00
2023-05-03T04:55:14.957Z,509.00
2023-05-03T04:56:14.982Z,508.00
2023-05-03T04:57:15.044Z,502.00
2023-05-03T04:58:15.060Z,502.00
2023-05-03T04:59:15.099Z,500.00
2023-05-03T05:00:15.146Z,505.00
2023-05-03T05:01:15.204Z,500.00
2023-05-03T05:02:15.218Z,500.00
2023-05-03T05:03:15.349Z,500.00
2023-05-03T05:04:15.312Z,502.00
2023-05-03T05:05:16.141Z,508.00
2023-05-03T05:06:15.401Z,500.00
2023-05-03T05:07:15.415Z,500.00
2023-05-03T05:08:15.448Z,504.00
2023-05-03T05:09:15.492Z,532.00
2023-05-03T05:10:15.524Z,541.00
2023-05-03T05:11:15.567Z,531.00
2023-05-03T05:12:15.623Z,553.00
2023-05-03T05:13:15.662Z,553.00
2023-05-03T05:14:15.688Z,553.00
2023-05-03T05:15:15.728Z,554.00
2023-05-03T05:16:15.781Z,556.00
2023-05-03T05:17:15.812Z,569.00
2023-05-03T05:18:15.810Z,606.00
2023-05-03T05:19:15.845Z,640.00
2023-05-03T05:20:17.093Z,645.00
2023-05-03T05:21:15.905Z,634.00
2023-05-03T05:22:15.946Z,658.00
2023-05-03T05:23:15.981Z,671.00
2023-05-03T05:24:16.019Z,744.00
2023-05-03T05:25:16.083Z,760.00
2023-05-03T05:26:16.102Z,762.00
2023-05-03T05:27:16.136Z,770.00
2023-05-03T05:28:16.190Z,782.00
2023-05-03T05:29:16.209Z,801.00
2023-05-03T05:30:16.266Z,890.00
2023-05-03T05:31:16.289Z,1008.00
2023-05-03T05:32:16.347Z,1091.00
2023-05-03T05:33:18.839Z,1095.00
2023-05-03T05:34:16.385Z,1127.00
2023-05-03T05:35:16.422Z,1212.00
2023-05-03T05:36:16.457Z,1106.00
2023-05-03T05:37:16.508Z,1163.00
2023-05-03T05:38:16.530Z,1265.00
2023-05-03T05:39:16.553Z,1449.00
2023-05-03T05:40:16.625Z,1774.00
2023-05-03T05:41:16.690Z,1879.00
2023-05-03T05:42:16.666Z,1879.00
2023-05-03T05:43:16.696Z,1926.00
2023-05-03T05:44:16.737Z,1980.00
2023-05-03T05:45:16.808Z,1962.00
2023-05-03T05:46:16.998Z,1926.00
2023-05-03T05:47:17.126Z,1943.00
2023-05-03T05:48:17.033Z,1754.00
2023-05-03T05:49:16.990Z,1446.00
2023-05-03T05:50:19.079Z,1379.00
2023-05-03T05:51:17.144Z,1220.00
2023-05-03T05:52:17.235Z,1108.00
2023-05-03T05:53:17.344Z,1022.00
2023-05-03T05:54:17.430Z,898.00
2023-05-03T05:55:17.432Z,888.00
2023-05-03T05:56:17.476Z,834.00
2023-05-03T05:57:17.505Z,753.00
2023-05-03T05:58:17.544Z,747.00
2023-05-03T05:59:17.579Z,660.00
2023-05-03T06:00:17.621Z,692.00
2023-05-03T06:01:17.662Z,639.00
2023-05-03T06:02:17.845Z,605.00
2023-05-03T06:03:17.761Z,558.00
2023-05-03T06:04:17.796Z,557.00
2023-05-03T06:05:17.881Z,556.00
2023-05-03T06:06:17.892Z,550.00
2023-05-03T06:07:17.921Z,540.00
2023-05-03T06:08:17.951Z,547.00
2023-05-03T06:10:19.030Z,533.00
2023-05-03T06:11:18.057Z,540.00
2023-05-03T06:12:18.108Z,521.00
2023-05-03T06:13:18.132Z,520.00
2023-05-03T06:14:18.171Z,521.00
2023-05-03T06:15:18.210Z,539.00
2023-05-03T06:16:18.322Z,546.00
2023-05-03T06:17:18.456Z,570.00
2023-05-03T06:18:18.395Z,555.00
2023-05-03T06:19:18.383Z,567.00
2023-05-03T06:20:18.432Z,562.00
2023-05-03T06:21:18.434Z,577.00
2023-05-03T06:22:18.482Z,579.00
2023-05-03T06:23:18.523Z,570.00
2023-05-03T06:24:18.563Z,567.00
2023-05-03T06:25:18.597Z,568.00
2023-05-03T06:26:18.648Z,562.00
2023-05-03T06:27:18.685Z,562.00
2023-05-03T06:28:18.718Z,562.00
2023-05-03T06:29:18.780Z,562.00
2023-05-03T06:30:18.805Z,566.00
2023-05-03T06:31:18.878Z,579.00
2023-05-03T06:32:18.879Z,570.00
2023-05-03T06:33:18.903Z,570.00
2023-05-03T06:34:18.928Z,553.00
2023-05-03T06:35:18.958Z,558.00
2023-05-03T06:36:19.004Z,570.00
2023-05-03T06:37:19.050Z,570.00
2023-05-03T06:38:19.081Z,572.00
2023-05-03T06:39:19.115Z,582.00
2023-05-03T06:40:19.162Z,587.00
2023-05-03T06:41:19.203Z,627.00
2023-05-03T06:42:19.233Z,660.00
2023-05-03T06:43:19.255Z,647.00
2023-05-03T06:44:19.305Z,603.00
2023-05-03T06:45:19.338Z,619.00
2023-05-03T06:46:20.379Z,623.00
2023-05-03T06:47:19.399Z,597.00
2023-05-03T06:48:19.611Z,625.00
2023-05-03T06:49:19.478Z,630.00
2023-05-03T06:50:19.548Z,641.00
2023-05-03T06:51:19.554Z,641.00
2023-05-03T06:52:19.649Z,624.00
2023-05-03T06:53:19.667Z,581.00
2023-05-03T06:54:19.690Z,583.00
2023-05-03T06:55:19.741Z,573.00
2023-05-03T06:56:19.762Z,578.00
2023-05-03T06:57:19.833Z,575.00
2023-05-03T06:58:19.847Z,575.00
2023-05-03T06:59:19.875Z,594.00
2023-05-03T07:00:19.931Z,573.00
2023-05-03T07:01:20.118Z,569.00
2023-05-03T07:02:20.019Z,561.00
2023-05-03T07:03:20.129Z,555.00
2023-05-03T07:04:20.131Z,568.00
2023-05-03T07:05:20.155Z,583.00
2023-05-03T07:06:20.251Z,566.00
2023-05-03T07:07:20.374Z,556.00
2023-05-03T07:08:20.323Z,551.00
2023-05-03T07:09:23.893Z,580.00
2023-05-03T07:10:21.400Z,581.00
2023-05-03T07:11:20.401Z,578.00
2023-05-03T07:12:20.447Z,549.00
2023-05-03T07:13:20.480Z,568.00
2023-05-03T07:14:20.521Z,576.00
2023-05-03T07:15:20.607Z,551.00
2023-05-03T07:16:20.648Z,559.00
2023-05-03T07:17:20.652Z,537.00
2023-05-03T07:18:20.671Z,512.00
2023-05-03T07:19:20.700Z,511.00
2023-05-03T07:20:20.764Z,514.00
2023-05-03T07:21:20.783Z,494.00
2023-05-03T07:22:20.862Z,500.00
2023-05-03T07:23:20.868Z,512.00
2023-05-03T07:24:20.900Z,529.00
2023-05-03T07:25:21.026Z,549.00
2023-05-03T07:26:20.981Z,594.00
2023-05-03T07:27:21.043Z,554.00
2023-05-03T07:28:21.084Z,562.00
2023-05-03T07:29:21.108Z,573.00
2023-05-03T07:30:21.153Z,535.00
2023-05-03T07:31:21.175Z,513.00
2023-05-03T07:32:21.264Z,534.00
2023-05-03T07:33:21.395Z,568.00
2023-05-03T07:34:21.293Z,559.00
2023-05-03T07:35:21.342Z,575.00
2023-05-03T07:36:21.366Z,621.00
2023-05-03T07:37:21.398Z,665.00
2023-05-03T07:38:21.446Z,631.00
2023-05-03T07:39:21.472Z,569.00
2023-05-03T07:40:21.486Z,643.00
2023-05-03T07:41:21.515Z,666.00
2023-05-03T07:42:21.556Z,667.00
2023-05-03T07:43:21.583Z,666.00
2023-05-03T07:44:21.611Z,618.00
2023-05-03T07:45:21.657Z,625.00
2023-05-03T07:46:21.852Z,622.00
2023-05-03T07:47:21.698Z,573.00
2023-05-03T07:48:21.732Z,527.00
2023-05-03T07:49:21.770Z,501.00
2023-05-03T07:50:21.826Z,509.00
2023-05-03T07:51:21.836Z,520.00
2023-05-03T07:52:21.900Z,530.00
2023-05-03T07:53:21.867Z,543.00
2023-05-03T07:54:21.934Z,525.00
2023-05-03T07:55:21.928Z,621.00
2023-05-03T07:56:21.948Z,624.00
2023-05-03T07:57:22.005Z,646.00
2023-05-03T07:58:31.311Z,781.00
2023-05-03T07:59:22.033Z,632.00
2023-05-03T08:00:22.055Z,693.00
2023-05-03T08:01:22.090Z,911.00
2023-05-03T08:02:22.202Z,1229.00
2023-05-03T08:03:22.299Z,1725.00
2023-05-03T08:04:22.431Z,1860.00
2023-05-03T08:05:22.191Z,1995.00
2023-05-03T08:06:22.215Z,1998.00
2023-05-03T08:07:22.223Z,2014.00
2023-05-03T08:08:22.238Z,2066.00
2023-05-03T08:09:22.268Z,2163.00
2023-05-03T08:10:22.475Z,2304.00
2023-05-03T08:11:22.313Z,2343.00
2023-05-03T08:12:22.349Z,2393.00
2023-05-03T08:13:22.355Z,2464.00
2023-05-03T08:14:22.373Z,2517.00
2023-05-03T08:15:22.442Z,2565.00
2023-05-03T08:16:22.485Z,2598.00
2023-05-03T08:17:22.451Z,2643.00
2023-05-03T08:18:23.806Z,2686.00
2023-05-03T08:19:22.484Z,2693.00
2023-05-03T08:20:22.533Z,2706.00
2023-05-03T08:21:22.522Z,2723.00
2023-05-03T08:22:22.540Z,2720.00
2023-05-03T08:23:22.561Z,2724.00
2023-05-03T08:24:22.580Z,2716.00
2023-05-03T08:25:22.595Z,2689.00
2023-05-03T08:26:22.615Z,2712.00
2023-05-03T08:27:22.656Z,2734.00
2023-05-03T08:28:22.689Z,2715.00
2023-05-03T08:29:22.715Z,2709.00
2023-05-03T08:30:22.748Z,2693.00
2023-05-03T08:31:22.814Z,2678.00
2023-05-03T08:32:22.799Z,2696.00
2023-05-03T08:33:22.817Z,2704.00
2023-05-03T08:34:22.831Z,2719.00
2023-05-03T08:35:22.855Z,2634.00
2023-05-03T08:36:22.875Z,2532.00
2023-05-03T08:37:22.910Z,2411.00
2023-05-03T08:38:22.945Z,2376.00
2023-05-03T08:39:22.948Z,2258.00
2023-05-03T08:40:22.972Z,2199.00
2023-05-03T08:41:22.996Z,2117.00
2023-05-03T08:42:24.524Z,2085.00
2023-05-03T08:43:23.208Z,2052.00
2023-05-03T08:44:23.231Z,2038.00
2023-05-03T08:45:23.257Z,2018.00
2023-05-03T08:46:23.316Z,1925.00
2023-05-03T08:47:23.290Z,1925.00
2023-05-03T08:48:23.303Z,1949.00
2023-05-03T08:49:23.326Z,1998.00
2023-05-03T08:50:23.335Z,2060.00
2023-05-03T08:51:23.389Z,2129.00
2023-05-03T08:52:23.366Z,2194.00
2023-05-03T08:53:23.429Z,2397.00
2023-05-03T08:54:23.400Z,2038.00
2023-05-03T08:55:23.411Z,1758.00
2023-05-03T08:56:23.430Z,1425.00
2023-05-03T08:57:23.471Z,1353.00
2023-05-03T08:58:23.533Z,1116.00
2023-05-03T08:59:23.482Z,901.00
2023-05-03T09:00:23.490Z,878.00
2023-05-03T09:01:23.566Z,818.00
2023-05-03T09:02:23.570Z,712.00
2023-05-03T09:03:23.725Z,646.00
2023-05-03T09:04:23.662Z,706.00
2023-05-03T09:05:23.599Z,618.00
2023-05-03T09:06:23.660Z,639.00
2023-05-03T09:07:23.669Z,573.00
2023-05-03T09:08:23.646Z,527.00
2023-05-03T09:09:23.672Z,528.00
2023-05-03T09:10:23.695Z,535.00
2023-05-03T09:11:23.718Z,544.00
2023-05-03T09:12:23.710Z,544.00
2023-05-03T09:13:23.746Z,543.00
2023-05-03T09:14:23.749Z,517.00
2023-05-03T09:15:23.778Z,484.00
2023-05-03T09:16:23.867Z,483.00
2023-05-03T09:17:23.816Z,493.00
2023-05-03T09:18:23.820Z,534.00
2023-05-03T09:19:23.828Z,517.00
2023-05-03T09:20:23.863Z,466.00
2023-05-03T09:21:23.865Z,467.00
2023-05-03T09:22:23.899Z,463.00
2023-05-03T09:23:23.930Z,461.00
2023-05-03T09:24:23.936Z,504.00
2023-05-03T09:25:23.982Z,477.00
2023-05-03T09:26:23.976Z,531.00
2023-05-03T09:27:24.036Z,440.00
2023-05-03T09:28:24.059Z,463.00
2023-05-03T09:29:24.125Z,501.00
2023-05-03T09:30:24.232Z,504.00
2023-05-03T09:31:24.148Z,512.00
2023-05-03T09:32:24.104Z,502.00
2023-05-03T09:33:24.117Z,504.00
2023-05-03T09:34:24.108Z,502.00
2023-05-03T09:35:24.171Z,519.00
2023-05-03T09:36:24.157Z,520.00
2023-05-03T09:37:24.191Z,525.00
2023-05-03T09:38:24.198Z,531.00
2023-05-03T09:39:24.231Z,526.00
2023-05-03T09:40:24.241Z,592.00
2023-05-03T09:41:24.258Z,648.00
2023-05-03T09:42:24.293Z,649.00
2023-05-03T09:43:24.296Z,576.00
2023-05-03T09:44:24.329Z,594.00
2023-05-03T09:45:24.323Z,589.00
2023-05-03T09:46:24.579Z,623.00
2023-05-03T09:47:24.381Z,648.00
2023-05-03T09:48:24.379Z,785.00
2023-05-03T09:49:24.383Z,907.00
2023-05-03T09:50:24.390Z,912.00
2023-05-03T09:51:24.417Z,931.00
2023-05-03T09:52:24.420Z,975.00
2023-05-03T09:53:24.437Z,1042.00
2023-05-03T09:54:25.661Z,1155.00
2023-05-03T09:55:24.462Z,1198.00
2023-05-03T09:56:24.462Z,1227.00
2023-05-03T09:57:24.487Z,1237.00
2023-05-03T09:58:24.496Z,1368.00
2023-05-03T09:59:24.507Z,1398.00
2023-05-03T10:00:24.614Z,1437.00
2023-05-03T10:01:24.574Z,1434.00
2023-05-03T10:02:24.614Z,1445.00
2023-05-03T10:03:24.600Z,1460.00
2023-05-03T10:04:24.701Z,1462.00
2023-05-03T10:05:24.625Z,1575.00
2023-05-03T10:06:24.615Z,1505.00
2023-05-03T10:07:24.588Z,1586.00
2023-05-03T10:08:24.594Z,1560.00
2023-05-03T10:09:24.613Z,1580.00
2023-05-03T10:10:24.626Z,1544.00
2023-05-03T10:11:24.646Z,1591.00
2023-05-03T10:12:24.669Z,1595.00
2023-05-03T10:13:24.740Z,1556.00
2023-05-03T10:14:24.711Z,1734.00
2023-05-03T10:15:24.714Z,1800.00
2023-05-03T10:16:24.800Z,1666.00
2023-05-03T10:17:35.399Z,1654.00
2023-05-03T10:18:25.760Z,1667.00
2023-05-03T10:19:24.771Z,1661.00
2023-05-03T10:20:24.783Z,1694.00
2023-05-03T10:21:24.809Z,1671.00
2023-05-03T10:22:24.808Z,1698.00
2023-05-03T10:23:24.843Z,1776.00
2023-05-03T10:24:24.865Z,1907.00
2023-05-03T10:25:24.858Z,2100.00
2023-05-03T10:26:24.877Z,2151.00
2023-05-03T10:27:24.879Z,2171.00
2023-05-03T10:28:24.906Z,2174.00
2023-05-03T10:29:24.905Z,2188.00
2023-05-03T10:30:24.919Z,2213.00
2023-05-03T10:31:25.005Z,2280.00
2023-05-03T10:32:24.967Z,2368.00
2023-05-03T10:33:24.937Z,2440.00
2023-05-03T10:34:24.973Z,2442.00
2023-05-03T10:35:24.959Z,2448.00
2023-05-03T10:36:26.012Z,2469.00
2023-05-03T10:37:24.979Z,2445.00
2023-05-03T10:38:24.980Z,2466.00
2023-05-03T10:39:24.991Z,2515.00
2023-05-03T10:40:25.002Z,2592.00
2023-05-03T10:41:25.004Z,2712.00
2023-05-03T10:42:25.012Z,2759.00
2023-05-03T10:43:25.072Z,2782.00
2023-05-03T10:44:25.020Z,2822.00
2023-05-03T10:45:25.031Z,2866.00
2023-05-03T10:46:25.052Z,2877.00
2023-05-03T10:47:25.128Z,2890.00
2023-05-03T10:48:25.045Z,2932.00
2023-05-03T10:49:25.065Z,2939.00
2023-05-03T10:50:25.068Z,2963.00
2023-05-03T10:51:25.090Z,2978.00
2023-05-03T10:52:25.091Z,3005.00
2023-05-03T10:53:25.108Z,3020.00
2023-05-03T10:54:25.110Z,3031.00
2023-05-03T10:55:25.130Z,3060.00
2023-05-03T10:56:25.142Z,3067.00
2023-05-03T10:57:25.152Z,3082.00
2023-05-03T10:58:25.158Z,3098.00
2023-05-03T10:59:25.169Z,3110.00
2023-05-03T11:00:25.172Z,3127.00
2023-05-03T11:01:25.251Z,3139.00
2023-05-03T11:02:25.222Z,3135.00
2023-05-03T11:03:25.314Z,3176.00
2023-05-03T11:04:25.232Z,3171.00
2023-05-03T11:05:25.218Z,3173.00
2023-05-03T11:06:25.312Z,3178.00
2023-05-03T11:07:25.244Z,3189.00
2023-05-03T11:08:25.243Z,3207.00
2023-05-03T11:09:25.258Z,3174.00
2023-05-03T11:10:25.265Z,3183.00
2023-05-03T11:11:25.286Z,3201.00
2023-05-03T11:12:25.286Z,3224.00
2023-05-03T11:13:25.312Z,3271.00
2023-05-03T11:14:25.300Z,3264.00
2023-05-03T11:15:25.299Z,3274.00
2023-05-03T11:16:25.314Z,3309.00
2023-05-03T11:17:25.329Z,3291.00
2023-05-03T11:18:25.318Z,3297.00
2023-05-03T11:19:25.345Z,3300.00
2023-05-03T11:20:25.466Z,3294.00
2023-05-03T11:21:25.346Z,3320.00
2023-05-03T11:22:25.350Z,3304.00
2023-05-03T11:23:25.367Z,3318.00
2023-05-03T11:24:25.351Z,3308.00
2023-05-03T11:25:25.362Z,3312.00
2023-05-03T11:26:25.353Z,3319.00
2023-05-03T11:27:25.373Z,3322.00
2023-05-03T11:28:25.383Z,3327.00
2023-05-03T11:29:25.390Z,3334.00
2023-05-03T11:30:25.402Z,3328.00
2023-05-03T11:31:25.689Z,3329.00
2023-05-03T11:32:25.484Z,3320.00
2023-05-03T11:33:25.532Z,3324.00
2023-05-03T11:34:25.545Z,3331.00
2023-05-03T11:35:25.574Z,3318.00
2023-05-03T11:36:25.651Z,3328.00
2023-05-03T11:37:25.691Z,3325.00
2023-05-03T11:38:25.775Z,3327.00
2023-05-03T11:39:25.848Z,3340.00
2023-05-03T11:40:25.897Z,3328.00
2023-05-03T11:41:25.959Z,3331.00
2023-05-03T11:42:26.029Z,3326.00
2023-05-03T11:43:26.106Z,3321.00
2023-05-03T11:44:26.185Z,3337.00
2023-05-03T11:45:26.253Z,3327.00
2023-05-03T11:46:26.342Z,3328.00
2023-05-03T11:47:26.406Z,3329.00
2023-05-03T11:48:26.362Z,3332.00
2023-05-03T11:49:26.281Z,3341.00
2023-05-03T11:50:26.319Z,3335.00
2023-05-03T11:51:26.316Z,3327.00
2023-05-03T11:52:26.365Z,3336.00
2023-05-03T11:53:26.365Z,3334.00
2023-05-03T11:54:27.606Z,3307.00
2023-05-03T11:55:26.331Z,3258.00
2023-05-03T11:56:26.330Z,3184.00
2023-05-03T11:57:26.349Z,3144.00
2023-05-03T11:58:26.434Z,3056.00
2023-05-03T11:59:26.374Z,2950.00
2023-05-03T12:00:26.374Z,2919.00
2023-05-03T12:01:26.403Z,2842.00
2023-05-03T12:02:26.646Z,2795.00
2023-05-03T12:03:30.861Z,2726.00
2023-05-03T12:04:27.811Z,2586.00
2023-05-03T12:05:26.776Z,2429.00
2023-05-03T12:06:26.733Z,2452.00
2023-05-03T12:07:27.188Z,2399.00
2023-05-03T12:08:27.137Z,2242.00
2023-05-03T12:09:27.288Z,2163.00
2023-05-03T12:10:27.133Z,2103.00
2023-05-03T12:11:28.415Z,2131.00
2023-05-03T12:12:31.136Z,2072.00
2023-05-03T12:13:26.911Z,2037.00
2023-05-03T12:14:26.764Z,2062.00
2023-05-03T12:15:27.044Z,2113.00
2023-05-03T12:16:26.802Z,2131.00